Time;durP1;ratioP1;P1;durP2;ratioP2;P2;SDS_P1;SDS_P2;PMS_P1;PMS_P2;Temp;Humidity;BMP_temperature;BMP_pressure;BME280_temperature;BME280_humidity;BME280_pressure;Samples;Min_cycle;Max_cycle;Signal;HPM_P1;HPM_P2
2022/08/28 00:01:37;;;;;;;3.90;1.38;;;;;;;;;;5090566;28;20122;-81
2022/08/28 00:04:03;;;;;;;3.63;1.30;;;;;;;;;;5089759;28;20053;-76
2022/08/28 00:06:29;;;;;;;2.92;1.27;;;;;;;;;;5090930;28;21269;-77
2022/08/28 00:08:56;;;;;;;3.10;1.10;;;;;;;;;;5090437;28;20043;-80
2022/08/28 00:11:22;;;;;;;3.97;1.02;;;;;;;;;;5089064;28;20028;-78
2022/08/28 00:13:49;;;;;;;4.47;1.20;;;;;;;;;;5091719;28;20415;-76
2022/08/28 00:16:17;;;;;;;2.72;1.02;;;;;;;;;;5092061;28;20066;-77
2022/08/28 00:18:43;;;;;;;2.42;0.80;;;;;;;;;;5085882;28;20465;-79
2022/08/28 00:21:10;;;;;;;7.13;1.05;;;;;;;;;;5083348;28;20043;-79
2022/08/28 00:23:36;;;;;;;2.55;0.90;;;;;;;;;;5090098;28;20028;-76
2022/08/28 00:26:02;;;;;;;3.00;1.13;;;;;;;;;;5090492;28;20024;-78
2022/08/28 00:28:28;;;;;;;2.10;1.00;;;;;;;;;;5091729;28;20031;-79
2022/08/28 00:30:57;;;;;;;3.17;1.08;;;;;;;;;;5091651;28;20442;-82
2022/08/28 00:33:23;;;;;;;2.40;1.10;;;;;;;;;;5092178;28;20079;-79
2022/08/28 00:35:50;;;;;;;2.22;0.90;;;;;;;;;;5089299;28;20478;-78
2022/08/28 00:38:18;;;;;;;3.28;1.10;;;;;;;;;;5090306;28;20052;-79
2022/08/28 00:40:44;;;;;;;3.93;0.97;;;;;;;;;;5090005;28;20038;-80
2022/08/28 00:43:10;;;;;;;2.92;1.02;;;;;;;;;;5089925;28;20401;-81
2022/08/28 00:45:36;;;;;;;4.03;1.25;;;;;;;;;;5090066;28;20058;-76
2022/08/28 00:48:03;;;;;;;1.55;1.00;;;;;;;;;;5090325;28;20668;-77
2022/08/28 00:52:04;;;;;;;3.83;1.20;;;;;;;;;;5090311;28;20047;-76
2022/08/28 00:53:20;;;;;;;3.88;1.20;;;;;;;;;;5086341;28;20038;-76
2022/08/28 00:55:46;;;;;;;2.97;1.17;;;;;;;;;;5070753;28;20032;-75
2022/08/28 00:58:13;;;;;;;4.15;1.20;;;;;;;;;;5077062;28;20032;-78
2022/08/28 01:00:40;;;;;;;2.35;0.90;;;;;;;;;;5087306;28;20432;-75
2022/08/28 01:03:07;;;;;;;4.30;1.30;;;;;;;;;;5069881;28;20498;-77
2022/08/28 01:05:34;;;;;;;2.95;1.08;;;;;;;;;;5069619;28;20183;-80
2022/08/28 01:08:03;;;;;;;5.18;1.10;;;;;;;;;;5082437;28;20074;-76
2022/08/28 01:10:29;;;;;;;4.15;1.15;;;;;;;;;;5086970;28;20016;-78
2022/08/28 01:12:56;;;;;;;2.50;1.13;;;;;;;;;;5068749;28;20478;-76
2022/08/28 01:15:25;;;;;;;3.60;1.25;;;;;;;;;;5069074;28;20029;-78
2022/08/28 01:17:56;;;;;;;2.88;1.10;;;;;;;;;;5069066;28;20126;-82
2022/08/28 01:20:24;;;;;;;3.78;1.15;;;;;;;;;;5069996;28;20043;-81
2022/08/28 01:22:58;;;;;;;2.00;1.10;;;;;;;;;;5081615;28;20044;-78
2022/08/28 01:25:27;;;;;;;1.95;0.95;;;;;;;;;;5090069;28;20028;-77
2022/08/28 01:27:54;;;;;;;2.83;1.20;;;;;;;;;;5088189;28;20579;-79
2022/08/28 01:30:20;;;;;;;4.47;1.20;;;;;;;;;;5089428;28;20246;-78
2022/08/28 01:32:48;;;;;;;3.58;1.25;;;;;;;;;;5088055;28;20355;-77
2022/08/28 01:35:15;;;;;;;4.57;1.50;;;;;;;;;;5089264;28;20020;-80
2022/08/28 01:37:41;;;;;;;6.05;1.17;;;;;;;;;;5086189;28;20024;-81
2022/08/28 01:40:09;;;;;;;2.85;1.10;;;;;;;;;;5089234;28;20540;-75
2022/08/28 01:42:39;;;;;;;4.70;1.20;;;;;;;;;;5089476;28;20027;-78
2022/08/28 01:45:09;;;;;;;3.20;1.02;;;;;;;;;;5090670;28;20490;-78
2022/08/28 01:47:35;;;;;;;3.80;1.17;;;;;;;;;;5088829;28;20532;-79
2022/08/28 01:50:01;;;;;;;2.42;1.17;;;;;;;;;;5089300;28;20028;-78
2022/08/28 01:52:27;;;;;;;3.03;1.20;;;;;;;;;;5088770;28;20024;-77
2022/08/28 01:54:53;;;;;;;5.05;1.20;;;;;;;;;;5090313;28;20028;-80
2022/08/28 01:57:19;;;;;;;4.00;0.93;;;;;;;;;;5089320;28;20497;-77
2022/08/28 01:59:46;;;;;;;4.68;1.55;;;;;;;;;;5090924;28;20028;-77
2022/08/28 02:02:12;;;;;;;2.22;1.00;;;;;;;;;;5088139;28;20060;-78
2022/08/28 02:04:38;;;;;;;3.88;1.27;;;;;;;;;;5089418;28;20099;-77
2022/08/28 02:07:04;;;;;;;4.80;1.10;;;;;;;;;;5089246;28;20036;-78
2022/08/28 02:09:30;;;;;;;5.35;1.48;;;;;;;;;;5089564;28;20042;-78
2022/08/28 02:11:56;;;;;;;5.40;1.30;;;;;;;;;;5089638;28;20027;-77
2022/08/28 02:14:22;;;;;;;5.38;1.30;;;;;;;;;;5089344;28;20050;-77
2022/08/28 02:16:50;;;;;;;3.50;1.45;;;;;;;;;;5088497;28;20511;-76
2022/08/28 02:19:16;;;;;;;3.47;1.40;;;;;;;;;;5086669;28;20229;-77
2022/08/28 02:21:42;;;;;;;2.40;1.48;;;;;;;;;;5088337;28;20482;-76
2022/08/28 02:24:08;;;;;;;3.08;1.30;;;;;;;;;;5088601;28;20020;-76
2022/08/28 02:26:34;;;;;;;4.78;1.50;;;;;;;;;;5090206;28;20443;-76
2022/08/28 02:29:00;;;;;;;5.60;1.40;;;;;;;;;;5090575;28;20103;-77
2022/08/28 02:31:26;;;;;;;3.30;1.27;;;;;;;;;;5090077;28;20039;-77
2022/08/28 02:33:53;;;;;;;4.75;1.60;;;;;;;;;;5087861;28;20020;-76
2022/08/28 02:36:19;;;;;;;3.17;1.23;;;;;;;;;;5087783;28;20035;-79
2022/08/28 02:38:46;;;;;;;2.95;1.20;;;;;;;;;;5089525;28;20538;-77
2022/08/28 02:41:12;;;;;;;5.78;1.40;;;;;;;;;;5087961;28;20040;-76
2022/08/28 02:43:39;;;;;;;4.38;1.27;;;;;;;;;;5088800;28;20028;-78
2022/08/28 02:46:05;;;;;;;4.03;1.58;;;;;;;;;;5090635;28;20410;-80
2022/08/28 02:48:32;;;;;;;3.72;1.48;;;;;;;;;;5088372;28;20044;-77
2022/08/28 02:50:59;;;;;;;3.05;1.40;;;;;;;;;;5089042;28;20526;-78
2022/08/28 02:53:26;;;;;;;2.25;1.48;;;;;;;;;;5087854;28;20028;-79
2022/08/28 02:55:52;;;;;;;2.85;1.58;;;;;;;;;;5089639;28;20103;-76
2022/08/28 02:58:18;;;;;;;6.43;1.63;;;;;;;;;;5090567;28;20670;-78
2022/08/28 03:00:44;;;;;;;4.40;1.70;;;;;;;;;;5092022;28;20130;-77
2022/08/28 03:03:10;;;;;;;4.95;1.98;;;;;;;;;;5091380;28;20020;-76
2022/08/28 03:05:36;;;;;;;3.67;1.70;;;;;;;;;;5091931;28;20098;-79
2022/08/28 03:08:02;;;;;;;4.47;1.80;;;;;;;;;;5090832;28;20024;-77
2022/08/28 03:10:28;;;;;;;3.83;1.50;;;;;;;;;;5081548;28;20497;-77
2022/08/28 03:12:54;;;;;;;4.03;1.75;;;;;;;;;;5091936;28;20016;-77
2022/08/28 03:15:20;;;;;;;4.80;1.77;;;;;;;;;;5093073;28;20270;-77
2022/08/28 03:17:46;;;;;;;5.55;1.88;;;;;;;;;;5093462;28;20026;-76
2022/08/28 03:20:13;;;;;;;4.15;2.00;;;;;;;;;;5092294;28;20130;-76
2022/08/28 03:25:24;;;;;;;6.82;1.95;;;;;;;;;;5074171;28;20055;-80
2022/08/28 03:27:50;;;;;;;5.13;2.00;;;;;;;;;;5071764;28;20048;-76
2022/08/28 03:30:16;;;;;;;4.97;2.30;;;;;;;;;;5093402;28;20520;-77
2022/08/28 03:32:42;;;;;;;3.38;1.75;;;;;;;;;;5093041;28;20033;-77
2022/08/28 03:35:09;;;;;;;5.82;2.30;;;;;;;;;;5093456;28;20410;-78
2022/08/28 03:37:35;;;;;;;4.30;1.75;;;;;;;;;;5093374;28;20470;-85
2022/08/28 03:40:01;;;;;;;5.40;2.30;;;;;;;;;;5093338;28;20044;-79
2022/08/28 03:42:27;;;;;;;4.18;1.88;;;;;;;;;;5091142;28;20023;-83
2022/08/28 03:44:53;;;;;;;4.25;2.28;;;;;;;;;;5089463;28;20084;-84
2022/08/28 03:47:19;;;;;;;7.93;2.25;;;;;;;;;;5092329;28;20540;-82
2022/08/28 03:49:45;;;;;;;6.43;1.95;;;;;;;;;;5092138;28;20027;-78
2022/08/28 03:52:12;;;;;;;5.53;2.13;;;;;;;;;;5091621;28;20385;-79
2022/08/28 03:54:38;;;;;;;6.80;2.50;;;;;;;;;;5092430;28;20089;-84
2022/08/28 03:57:04;;;;;;;7.68;2.50;;;;;;;;;;5092591;28;20024;-79
2022/08/28 03:59:30;;;;;;;5.72;2.30;;;;;;;;;;5088323;28;20055;-80
2022/08/28 04:01:56;;;;;;;8.88;2.60;;;;;;;;;;5091113;28;20036;-79
2022/08/28 04:04:21;;;;;;;4.97;2.28;;;;;;;;;;5092160;28;20020;-76
2022/08/28 04:06:47;;;;;;;6.40;2.38;;;;;;;;;;5091401;28;20030;-84
2022/08/28 04:09:13;;;;;;;4.72;2.47;;;;;;;;;;5089834;28;20166;-81
2022/08/28 04:11:43;;;;;;;8.82;2.85;;;;;;;;;;5092137;28;20028;-81
2022/08/28 04:14:11;;;;;;;6.35;2.92;;;;;;;;;;5089762;28;20101;-80
2022/08/28 04:16:37;;;;;;;7.00;2.92;;;;;;;;;;5090506;28;20498;-78
2022/08/28 04:19:03;;;;;;;8.52;2.88;;;;;;;;;;5091118;28;20090;-77
2022/08/28 04:21:30;;;;;;;7.45;2.85;;;;;;;;;;5092166;28;20036;-84
2022/08/28 04:23:56;;;;;;;5.78;2.83;;;;;;;;;;5089336;28;20500;-80
2022/08/28 04:26:23;;;;;;;7.47;2.65;;;;;;;;;;5090497;28;20044;-80
2022/08/28 04:28:49;;;;;;;7.78;3.30;;;;;;;;;;5091246;28;20378;-80
2022/08/28 04:31:16;;;;;;;9.45;2.97;;;;;;;;;;5090792;28;20028;-83
2022/08/28 04:33:42;;;;;;;5.38;2.80;;;;;;;;;;5091857;28;20028;-85
2022/08/28 04:36:11;;;;;;;5.18;2.70;;;;;;;;;;5090752;28;20059;-79
2022/08/28 04:38:37;;;;;;;6.13;3.17;;;;;;;;;;5092011;28;20039;-80
2022/08/28 04:41:07;;;;;;;5.95;2.83;;;;;;;;;;5092032;28;20458;-84
2022/08/28 04:43:33;;;;;;;8.77;3.08;;;;;;;;;;5090470;28;20027;-76
2022/08/28 04:46:03;;;;;;;6.65;2.75;;;;;;;;;;5090671;28;20084;-82
2022/08/28 04:48:29;;;;;;;7.60;3.05;;;;;;;;;;5090416;28;20478;-77
2022/08/28 04:50:55;;;;;;;6.13;2.90;;;;;;;;;;5091035;28;20039;-85
2022/08/28 04:53:21;;;;;;;8.60;3.45;;;;;;;;;;5089621;28;20501;-78
2022/08/28 04:55:49;;;;;;;7.85;3.13;;;;;;;;;;5090880;28;20035;-83
2022/08/28 04:58:15;;;;;;;8.40;3.50;;;;;;;;;;5089801;28;20027;-79
2022/08/28 05:00:45;;;;;;;8.18;3.00;;;;;;;;;;5088986;28;20379;-79
2022/08/28 05:03:11;;;;;;;9.15;3.95;;;;;;;;;;5089638;28;20069;-77
2022/08/28 05:05:42;;;;;;;7.95;3.13;;;;;;;;;;5089765;28;20024;-79
2022/08/28 05:08:07;;;;;;;7.88;3.03;;;;;;;;;;5090316;28;20020;-76
2022/08/28 05:10:34;;;;;;;7.35;3.35;;;;;;;;;;5089837;28;20031;-79
2022/08/28 05:13:00;;;;;;;9.07;3.40;;;;;;;;;;5090892;28;20027;-77
2022/08/28 05:15:27;;;;;;;8.13;3.60;;;;;;;;;;5087919;28;20458;-79
2022/08/28 05:17:53;;;;;;;8.70;2.97;;;;;;;;;;5090275;28;20024;-79
2022/08/28 05:20:19;;;;;;;9.07;3.17;;;;;;;;;;5090255;28;20059;-76
2022/08/28 05:22:45;;;;;;;8.02;3.22;;;;;;;;;;5088814;28;20024;-76
2022/08/28 05:25:11;;;;;;;7.53;3.03;;;;;;;;;;5091201;28;20024;-76
2022/08/28 05:27:39;;;;;;;8.20;3.40;;;;;;;;;;5089473;28;20036;-78
2022/08/28 05:30:05;;;;;;;8.18;3.15;;;;;;;;;;5090333;28;20471;-77
2022/08/28 05:32:31;;;;;;;7.72;3.45;;;;;;;;;;5090122;28;20035;-77
2022/08/28 05:34:57;;;;;;;5.40;2.55;;;;;;;;;;5089420;28;20035;-80
2022/08/28 05:37:23;;;;;;;10.65;3.10;;;;;;;;;;5088495;28;20024;-79
2022/08/28 05:39:49;;;;;;;7.43;2.90;;;;;;;;;;5089789;28;20048;-79
2022/08/28 05:42:15;;;;;;;6.43;3.10;;;;;;;;;;5090616;28;20062;-76
2022/08/28 05:44:41;;;;;;;7.07;3.03;;;;;;;;;;5089856;28;20028;-77
2022/08/28 05:47:07;;;;;;;12.68;3.05;;;;;;;;;;5088681;28;20067;-79
2022/08/28 05:49:33;;;;;;;6.85;3.10;;;;;;;;;;5073807;28;20028;-77
2022/08/28 05:51:59;;;;;;;7.10;3.15;;;;;;;;;;5080787;28;20020;-76
2022/08/28 05:54:25;;;;;;;8.30;3.38;;;;;;;;;;5084946;28;20492;-79
2022/08/28 05:56:51;;;;;;;9.13;3.38;;;;;;;;;;5078796;28;20108;-77
2022/08/28 05:59:17;;;;;;;6.30;3.03;;;;;;;;;;5088800;28;20529;-79
2022/08/28 06:01:45;;;;;;;5.40;2.85;;;;;;;;;;5090549;28;20524;-74
2022/08/28 06:04:16;;;;;;;9.38;2.97;;;;;;;;;;5076786;28;20039;-77
2022/08/28 06:06:43;;;;;;;5.78;2.65;;;;;;;;;;5088712;28;20020;-76
2022/08/28 06:09:11;;;;;;;7.28;3.08;;;;;;;;;;5089001;28;20024;-80
2022/08/28 06:11:37;;;;;;;6.25;3.05;;;;;;;;;;5088749;28;20023;-75
2022/08/28 06:14:08;;;;;;;9.05;3.28;;;;;;;;;;5090184;28;20016;-77
2022/08/28 06:16:35;;;;;;;7.38;2.95;;;;;;;;;;5090825;28;20028;-76
2022/08/28 06:19:01;;;;;;;8.38;3.22;;;;;;;;;;5088755;28;20373;-76
2022/08/28 06:21:27;;;;;;;7.78;2.88;;;;;;;;;;5090459;28;20115;-78
2022/08/28 06:23:53;;;;;;;6.07;2.85;;;;;;;;;;5089950;28;20047;-76
2022/08/28 06:26:19;;;;;;;5.10;2.45;;;;;;;;;;5089840;28;20071;-75
2022/08/28 06:28:45;;;;;;;5.13;2.65;;;;;;;;;;5089293;28;20064;-77
2022/08/28 06:31:11;;;;;;;4.80;2.72;;;;;;;;;;5090004;28;20107;-76
2022/08/28 06:33:37;;;;;;;6.60;2.63;;;;;;;;;;5091238;28;20102;-76
2022/08/28 06:36:04;;;;;;;5.95;2.53;;;;;;;;;;5078410;28;20046;-75
2022/08/28 06:38:30;;;;;;;6.53;2.75;;;;;;;;;;5079082;28;20031;-78
2022/08/28 06:40:56;;;;;;;7.45;2.90;;;;;;;;;;5076510;28;20028;-77
2022/08/28 06:43:24;;;;;;;6.78;3.17;;;;;;;;;;5078957;28;20016;-76
2022/08/28 06:45:53;;;;;;;6.25;2.85;;;;;;;;;;5074897;28;20029;-76
2022/08/28 06:48:19;;;;;;;6.93;2.67;;;;;;;;;;5081333;28;20024;-75
2022/08/28 06:50:46;;;;;;;5.93;2.80;;;;;;;;;;5082214;28;20025;-81
2022/08/28 06:53:13;;;;;;;6.95;2.58;;;;;;;;;;5082640;28;20036;-77
2022/08/28 06:55:40;;;;;;;6.07;2.70;;;;;;;;;;5076959;28;20040;-76
2022/08/28 06:58:06;;;;;;;5.55;2.63;;;;;;;;;;5077783;28;20124;-79
2022/08/28 07:00:34;;;;;;;5.82;2.45;;;;;;;;;;5073528;28;20129;-74
2022/08/28 07:03:00;;;;;;;7.47;2.72;;;;;;;;;;5080850;28;20032;-73
2022/08/28 07:05:26;;;;;;;6.97;2.72;;;;;;;;;;5090247;28;20024;-76
2022/08/28 07:07:52;;;;;;;6.07;2.60;;;;;;;;;;5091180;28;20387;-75
2022/08/28 07:10:18;;;;;;;5.47;2.38;;;;;;;;;;5090992;28;20048;-75
2022/08/28 07:12:44;;;;;;;8.02;2.78;;;;;;;;;;5091230;28;20080;-75
2022/08/28 07:15:11;;;;;;;6.20;2.50;;;;;;;;;;5075415;28;20032;-76
2022/08/28 07:17:37;;;;;;;5.55;2.50;;;;;;;;;;5077189;28;20025;-76
2022/08/28 07:20:05;;;;;;;6.25;2.38;;;;;;;;;;5077984;28;20047;-78
2022/08/28 07:22:32;;;;;;;6.75;2.60;;;;;;;;;;5080406;28;20027;-79
2022/08/28 07:24:58;;;;;;;8.25;2.38;;;;;;;;;;5077344;28;20025;-77
2022/08/28 07:27:24;;;;;;;7.88;2.67;;;;;;;;;;5089809;28;20067;-77
2022/08/28 07:29:51;;;;;;;8.07;2.67;;;;;;;;;;5087010;28;20028;-77
2022/08/28 07:32:20;;;;;;;5.47;2.17;;;;;;;;;;5087392;28;20137;-77
2022/08/28 07:34:46;;;;;;;;;;;;;;;;;;5093640;28;20052;-77
2022/08/28 07:37:12;;;;;;;5.57;2.22;;;;;;;;;;5093089;28;19950;-76
2022/08/28 07:39:38;;;;;;;6.18;2.58;;;;;;;;;;5088036;28;20024;-77
2022/08/28 07:42:04;;;;;;;6.07;2.30;;;;;;;;;;5088992;28;20028;-77
2022/08/28 07:44:48;;;;;;;4.78;2.60;;;;;;;;;;5091562;28;20032;-80
2022/08/28 07:47:14;;;;;;;7.28;2.60;;;;;;;;;;5081891;28;20644;-77
2022/08/28 07:49:40;;;;;;;5.93;2.50;;;;;;;;;;5079915;28;20044;-77
2022/08/28 07:52:07;;;;;;;6.88;2.40;;;;;;;;;;5082474;28;20043;-77
2022/08/28 07:54:34;;;;;;;7.20;2.47;;;;;;;;;;5075998;28;20032;-77
2022/08/28 07:57:01;;;;;;;6.18;2.28;;;;;;;;;;5077742;28;20236;-76
2022/08/28 07:59:28;;;;;;;5.57;2.05;;;;;;;;;;5077044;28;20028;-76
2022/08/28 08:01:54;;;;;;;8.90;2.67;;;;;;;;;;5084967;28;20043;-77
2022/08/28 08:04:21;;;;;;;8.18;2.50;;;;;;;;;;5078945;28;20125;-77
2022/08/28 08:06:47;;;;;;;5.00;2.50;;;;;;;;;;5092092;28;20035;-78
2022/08/28 08:09:14;;;;;;;8.82;2.40;;;;;;;;;;5086071;28;20021;-76
2022/08/28 08:11:41;;;;;;;5.32;2.22;;;;;;;;;;5082046;28;20034;-77
2022/08/28 08:14:07;;;;;;;7.93;2.45;;;;;;;;;;5082529;28;20069;-78
2022/08/28 08:16:34;;;;;;;4.65;2.25;;;;;;;;;;5080607;28;20032;-77
2022/08/28 08:19:01;;;;;;;6.45;2.20;;;;;;;;;;5075325;28;20098;-78
2022/08/28 08:21:28;;;;;;;5.68;2.25;;;;;;;;;;5075621;28;20036;-77
2022/08/28 08:23:54;;;;;;;10.57;2.58;;;;;;;;;;5078994;28;20111;-77
2022/08/28 08:26:22;;;;;;;7.50;2.42;;;;;;;;;;5078150;28;20127;-77
2022/08/28 08:28:49;;;;;;;5.78;2.25;;;;;;;;;;5075687;28;20115;-79
2022/08/28 08:31:23;;;;;;;5.70;2.25;;;;;;;;;;5075816;28;20020;-76
2022/08/28 08:33:50;;;;;;;4.53;2.10;;;;;;;;;;5074321;28;20025;-78
2022/08/28 08:36:17;;;;;;;5.85;2.10;;;;;;;;;;5078388;28;20081;-77
2022/08/28 08:38:44;;;;;;;4.30;1.98;;;;;;;;;;5075662;28;20044;-78
2022/08/28 08:41:24;;;;;;;5.95;2.45;;;;;;;;;;5078506;28;20106;-77
2022/08/28 08:43:50;;;;;;;4.03;2.10;;;;;;;;;;5077963;28;20066;-77
2022/08/28 08:46:26;;;;;;;7.47;2.33;;;;;;;;;;5076949;28;20029;-77
2022/08/28 08:48:53;;;;;;;6.10;2.50;;;;;;;;;;5077107;28;20093;-76
2022/08/28 08:51:22;;;;;;;7.05;2.38;;;;;;;;;;5079081;28;20079;-78
2022/08/28 08:53:53;;;;;;;6.05;2.45;;;;;;;;;;5090395;28;20058;-77
2022/08/28 08:56:20;;;;;;;3.72;2.17;;;;;;;;;;5079847;28;20024;-77
2022/08/28 08:58:48;;;;;;;5.72;2.25;;;;;;;;;;5090230;28;20640;-77
2022/08/28 09:01:32;;;;;;;6.07;2.10;;;;;;;;;;5089780;28;20120;-77
2022/08/28 09:04:03;;;;;;;7.63;2.25;;;;;;;;;;5078625;28;20505;-77
2022/08/28 09:06:39;;;;;;;5.43;2.17;;;;;;;;;;5082079;28;20021;-77
2022/08/28 09:09:12;;;;;;;7.60;2.33;;;;;;;;;;5074027;28;20146;-77
2022/08/28 09:11:38;;;;;;;10.13;2.45;;;;;;;;;;5086706;28;20024;-77
2022/08/28 09:14:04;;;;;;;6.65;2.65;;;;;;;;;;5085442;28;20069;-78
2022/08/28 09:16:31;;;;;;;7.53;2.42;;;;;;;;;;5088323;28;20020;-76
2022/08/28 09:18:58;;;;;;;4.67;2.13;;;;;;;;;;5090380;28;20032;-80
2022/08/28 09:21:34;;;;;;;6.90;2.08;;;;;;;;;;5089025;28;20470;-79
2022/08/28 09:24:01;;;;;;;5.28;2.03;;;;;;;;;;5090181;28;20660;-76
2022/08/28 09:26:28;;;;;;;3.95;1.90;;;;;;;;;;5090731;28;20054;-81
2022/08/28 09:29:15;;;;;;;10.00;2.53;;;;;;;;;;5086807;28;20036;-79
2022/08/28 09:31:42;;;;;;;4.43;1.90;;;;;;;;;;5083717;28;20028;-77
2022/08/28 09:34:22;;;;;;;6.45;2.55;;;;;;;;;;5090741;28;20494;-79
2022/08/28 09:36:48;;;;;;;6.40;2.25;;;;;;;;;;5090083;28;20500;-77
2022/08/28 09:39:22;;;;;;;7.05;2.38;;;;;;;;;;5089620;28;20115;-77
2022/08/28 09:44:52;;;;;;;6.00;2.28;;;;;;;;;;5091233;28;20029;-77
2022/08/28 09:47:37;;;;;;;7.05;2.40;;;;;;;;;;5089667;28;20032;-77
2022/08/28 09:50:15;;;;;;;9.05;2.47;;;;;;;;;;5078799;28;20035;-78
2022/08/28 09:52:41;;;;;;;7.15;2.33;;;;;;;;;;5082793;28;20094;-78
2022/08/28 09:55:10;;;;;;;4.65;2.10;;;;;;;;;;5078506;28;20023;-78
2022/08/28 09:57:36;;;;;;;5.25;2.30;;;;;;;;;;5081319;28;20054;-77
2022/08/28 10:00:04;;;;;;;5.55;2.28;;;;;;;;;;5075694;28;20044;-79
2022/08/28 10:02:39;;;;;;;4.57;2.33;;;;;;;;;;5082513;28;20038;-77
2022/08/28 10:05:09;;;;;;;5.95;2.85;;;;;;;;;;5080132;28;20024;-77
2022/08/28 10:07:45;;;;;;;6.53;2.40;;;;;;;;;;5074179;28;20023;-77
2022/08/28 10:10:26;;;;;;;7.40;2.70;;;;;;;;;;5083016;28;20028;-79
2022/08/28 10:13:11;;;;;;;5.75;2.58;;;;;;;;;;5083606;28;20020;-77
2022/08/28 10:15:58;;;;;;;4.38;2.60;;;;;;;;;;5083971;28;20016;-77
2022/08/28 10:18:36;;;;;;;5.20;2.40;;;;;;;;;;5086140;28;20394;-78
2022/08/28 10:21:09;;;;;;;8.43;2.85;;;;;;;;;;5075590;28;20544;-77
2022/08/28 10:23:53;;;;;;;4.82;2.30;;;;;;;;;;5091052;28;20020;-77
2022/08/28 10:26:26;;;;;;;7.22;2.35;;;;;;;;;;5088511;28;20494;-77
2022/08/28 10:28:55;;;;;;;4.28;2.30;;;;;;;;;;5088429;28;20781;-77
2022/08/28 10:31:32;;;;;;;5.25;2.33;;;;;;;;;;5088453;28;20534;-78
2022/08/28 10:34:01;;;;;;;8.82;2.63;;;;;;;;;;5076969;28;20117;-78
2022/08/28 10:36:31;;;;;;;6.53;2.55;;;;;;;;;;5072080;28;20486;-78
2022/08/28 10:39:08;;;;;;;6.18;2.33;;;;;;;;;;5082231;28;20040;-77
2022/08/28 10:41:34;;;;;;;7.18;2.50;;;;;;;;;;5079272;28;20040;-77
2022/08/28 10:44:01;;;;;;;4.35;2.08;;;;;;;;;;5080022;28;20031;-76
2022/08/28 10:46:40;;;;;;;5.40;2.15;;;;;;;;;;5078983;28;20024;-77
2022/08/28 10:49:10;;;;;;;5.05;1.77;;;;;;;;;;5074648;28;20359;-76
2022/08/28 10:51:41;;;;;;;5.10;2.20;;;;;;;;;;5068014;28;20605;-77
2022/08/28 10:54:27;;;;;;;4.05;1.73;;;;;;;;;;5086947;28;20099;-77
2022/08/28 10:56:56;;;;;;;6.07;2.15;;;;;;;;;;5088208;28;20035;-77
2022/08/28 10:59:22;;;;;;;5.43;2.08;;;;;;;;;;5085473;28;20110;-78
2022/08/28 11:01:49;;;;;;;4.85;2.08;;;;;;;;;;5081008;28;20064;-77
2022/08/28 11:04:19;;;;;;;4.97;1.75;;;;;;;;;;5079859;28;20217;-78
2022/08/28 11:07:08;;;;;;;4.63;2.00;;;;;;;;;;5077953;28;20020;-78
2022/08/28 11:09:46;;;;;;;6.32;1.90;;;;;;;;;;5068846;28;20163;-78
2022/08/28 11:12:18;;;;;;;3.42;1.50;;;;;;;;;;5070105;28;20074;-77
2022/08/28 11:14:46;;;;;;;6.97;1.77;;;;;;;;;;5067910;28;20363;-77
2022/08/28 11:17:21;;;;;;;4.88;1.75;;;;;;;;;;5085072;28;20036;-78
2022/08/28 11:19:47;;;;;;;3.80;1.80;;;;;;;;;;5082462;28;20428;-77
2022/08/28 11:22:24;;;;;;;3.78;1.83;;;;;;;;;;5081276;28;20382;-77
2022/08/28 11:24:55;;;;;;;5.38;1.80;;;;;;;;;;5082886;28;20012;-78
2022/08/28 11:27:24;;;;;;;3.17;1.80;;;;;;;;;;5089269;28;20086;-77
2022/08/28 11:30:00;;;;;;;4.07;2.00;;;;;;;;;;5090543;28;20024;-78
2022/08/28 11:32:37;;;;;;;5.05;1.70;;;;;;;;;;5087131;28;20021;-77
2022/08/28 11:35:26;;;;;;;8.20;2.15;;;;;;;;;;5089103;28;20024;-78
2022/08/28 11:37:53;;;;;;;4.38;1.77;;;;;;;;;;5081943;28;20048;-78
2022/08/28 11:40:31;;;;;;;4.55;1.80;;;;;;;;;;5091020;28;20120;-79
